PHMK

Molokai Airport

Kaunakakai, Hawaii, USA
PHMK 191736Z 1918/2018 04011G16KT P6SM FEW025 FM192000 04014G23KT P6SM SCT025 FM200600 04010G16KT P6SM FEW025
Issued Valid From Valid To
Nov-19 @ 17:36 UTC
(5 hours ago)
Nov-19 @ 18:00 UTC
(4 hours ago)
Nov-20 @ 18:00 UTC
(in 20 hours)
Expired Click to View Nov-19 @ 18:00 to Nov-19 @ 20:00
PHMK 191736Z 1918/2018 04011G16KT P6SM FEW025
Wind Visibility Clouds
40° at 11 knots
 Gusting to 16 knots
Greater than 6 miles
  • Few at 2,500' AGL
From Nov-19 @ 20:00 to Nov-20 @ 06:00
FM192000 04014G23KT P6SM SCT025
Wind Visibility Clouds
40° at 14 knots
 Gusting to 23 knots
Greater than 6 miles
  • Scattered at 2,500' AGL
From Nov-20 @ 06:00 to Nov-20 @ 18:00
FM200600 04010G16KT P6SM FEW025
Wind Visibility Clouds
40° at 10 knots
 Gusting to 16 knots
Greater than 6 miles
  • Few at 2,500' AGL
PHMK 191736Z 1918/2018 04011G16KT P6SM FEW025 FM192000 04014G23KT P6SM SCT025 FM200600 04010G16KT P6SM FEW025
Issued Nov-19 @ 17:36 UTC
(5 hours ago)
Valid From Nov-19 @ 18:00 UTC
(4 hours ago)
Valid To Nov-20 @ 18:00 UTC
(in 20 hours)
Nov-19 @ 18:00 - Nov-19 @ 20:00
Wind Visibility
40° at 11 knots
 Gusting to 16 knots
Greater than 6 miles
Clouds
  • Few at 2,500' AGL
From Nov-19 @ 20:00 - Nov-20 @ 06:00
Wind Visibility
40° at 14 knots
 Gusting to 23 knots
Greater than 6 miles
Clouds
  • Scattered at 2,500' AGL
From Nov-20 @ 06:00 - Nov-20 @ 18:00
Wind Visibility
40° at 10 knots
 Gusting to 16 knots
Greater than 6 miles
Clouds
  • Few at 2,500' AGL